Kelibia, Tunisia
Current Conditions -  °F | °C
As of 6:30 AM on Tuesday 27 Jan 2015 (Local Time) from DTTA Reporting Station
Scattered Clouds Scattered Clouds  
Wind Chill: 45°   Ceiling: Unl
Heat Index: 48°   Visibility: 5mi
Dew Point: 45°   Wind: 8mph
Humidity: 87%   Direction: 290°WNW
Pressure: 30.06"   Gusts: NA
Location:  36.85°N, 11.09°E
Report Text: DTTA 270530Z 29007KT 260V320 8000 SCT026TCU 09/07 Q1018 NOSIG
Loading
Personal Weather Stations






























Interactive Weather Map New forecast layout! Learn more

10-Day Weather Forecast

Advertisements
Track Severe Weather on mobile